Time;durP1;ratioP1;P1;durP2;ratioP2;P2;SDS_P1;SDS_P2;PMS_P1;PMS_P2;Temp;Humidity;BMP_temperature;BMP_pressure;BME280_temperature;BME280_humidity;BME280_pressure;Samples;Min_cycle;Max_cycle;Signal;HPM_P1;HPM_P2
2020/12/06 00:00:54;;;;;;;4.77;3.23;;;2.30;99.90;;;;;;5088417;28;20191;-77
2020/12/06 00:03:20;;;;;;;5.23;4.00;;;2.30;99.90;;;;;;5086619;28;20700;-78
2020/12/06 00:05:45;;;;;;;3.50;3.20;;;2.30;99.90;;;;;;5087382;28;20187;-79
2020/12/06 00:08:11;;;;;;;3.53;2.93;;;2.30;99.90;;;;;;5087207;28;20177;-78
2020/12/06 00:10:36;;;;;;;5.47;4.00;;;2.30;99.90;;;;;;5085545;28;20227;-78
2020/12/06 00:13:03;;;;;;;4.43;3.37;;;2.30;99.90;;;;;;5088246;28;20272;-78
2020/12/06 00:15:28;;;;;;;5.17;4.00;;;2.30;99.90;;;;;;5085552;28;20192;-79
2020/12/06 00:17:54;;;;;;;5.30;3.37;;;2.30;99.90;;;;;;5086459;28;20216;-79
2020/12/06 00:20:20;;;;;;;5.87;3.60;;;2.30;99.90;;;;;;5086003;28;20200;-79
2020/12/06 00:22:45;;;;;;;5.40;3.70;;;2.30;99.90;;;;;;5086704;28;20177;-79
2020/12/06 00:25:11;;;;;;;5.07;3.33;;;2.30;99.90;;;;;;5085464;28;20189;-78
2020/12/06 00:27:37;;;;;;;4.23;3.87;;;2.30;99.90;;;;;;5086702;28;20631;-77
2020/12/06 00:30:08;;;;;;;5.53;4.30;;;2.40;99.90;;;;;;5087158;28;20205;-79
2020/12/06 00:32:33;;;;;;;5.03;3.60;;;2.40;99.90;;;;;;5085516;28;20192;-78
2020/12/06 00:34:59;;;;;;;5.73;4.20;;;2.40;99.90;;;;;;5085910;28;20193;-80
2020/12/06 00:37:24;;;;;;;4.80;3.60;;;2.40;99.90;;;;;;5084099;28;20807;-78
2020/12/06 00:39:50;;;;;;;4.00;3.20;;;2.40;99.90;;;;;;5083915;28;20216;-79
2020/12/06 00:42:16;;;;;;;5.60;4.83;;;2.40;99.90;;;;;;5085606;28;20792;-78
2020/12/06 00:44:41;;;;;;;5.27;3.90;;;2.40;99.90;;;;;;5087580;28;20536;-77
2020/12/06 00:47:07;;;;;;;4.30;3.67;;;2.50;99.90;;;;;;5085285;28;20200;-78
2020/12/06 00:49:32;;;;;;;4.10;3.53;;;2.50;99.90;;;;;;5085862;28;20712;-79
2020/12/06 00:51:58;;;;;;;5.57;3.93;;;2.40;99.90;;;;;;5086036;28;20192;-79
2020/12/06 00:54:24;;;;;;;4.37;3.47;;;2.40;99.90;;;;;;5086873;28;20185;-77
2020/12/06 00:56:56;;;;;;;4.77;3.93;;;2.40;99.90;;;;;;5086283;28;20208;-76
2020/12/06 00:59:23;;;;;;;4.73;3.27;;;2.30;99.90;;;;;;5085431;28;20216;-77
2020/12/06 01:01:49;;;;;;;5.47;3.60;;;2.30;99.90;;;;;;5102343;28;20574;-79
2020/12/06 01:04:14;;;;;;;4.40;3.33;;;2.20;99.90;;;;;;5085540;28;20185;-78
2020/12/06 01:06:40;;;;;;;6.07;3.93;;;2.20;99.90;;;;;;5087127;28;20193;-79
2020/12/06 01:09:05;;;;;;;4.73;4.07;;;2.20;99.90;;;;;;5086159;28;20212;-78
2020/12/06 01:11:31;;;;;;;4.20;3.40;;;2.20;99.90;;;;;;5087319;28;20193;-79
2020/12/06 01:13:57;;;;;;;4.93;4.10;;;2.20;99.90;;;;;;5086214;28;20188;-78
2020/12/06 01:16:23;;;;;;;6.50;4.33;;;2.20;99.90;;;;;;5086344;28;20284;-79
2020/12/06 01:18:48;;;;;;;4.50;3.90;;;2.20;99.90;;;;;;5087372;28;20204;-79
2020/12/06 01:21:14;;;;;;;4.50;3.67;;;2.10;99.90;;;;;;5085867;28;20193;-78
2020/12/06 01:23:39;;;;;;;7.70;4.63;;;2.10;99.90;;;;;;5086428;28;20631;-79
2020/12/06 01:26:05;;;;;;;3.97;3.57;;;2.10;99.90;;;;;;5086801;28;20653;-78
2020/12/06 01:28:31;;;;;;;5.30;3.87;;;2.10;99.90;;;;;;5087330;28;20232;-79
2020/12/06 01:30:56;;;;;;;7.40;5.63;;;2.30;99.90;;;;;;5085998;28;20189;-78
2020/12/06 01:33:22;;;;;;;5.07;4.40;;;2.30;99.90;;;;;;5086860;28;20181;-79
2020/12/06 01:35:48;;;;;;;4.97;3.87;;;2.30;99.90;;;;;;5084704;28;20658;-77
2020/12/06 01:38:13;;;;;;;4.70;3.57;;;2.30;99.90;;;;;;5085913;28;20570;-78
2020/12/06 01:40:40;;;;;;;3.47;3.17;;;2.30;99.90;;;;;;5087025;28;20219;-79
2020/12/06 01:43:10;;;;;;;7.00;4.33;;;2.30;99.90;;;;;;5085042;28;20200;-77
2020/12/06 01:45:37;;;;;;;5.13;3.50;;;2.40;99.90;;;;;;5084248;28;20189;-77
2020/12/06 01:48:08;;;;;;;4.30;3.10;;;2.40;99.90;;;;;;5086427;28;20185;-78
2020/12/06 01:50:37;;;;;;;6.00;4.10;;;2.30;99.90;;;;;;5087451;28;20591;-78
2020/12/06 01:53:04;;;;;;;4.80;2.87;;;2.30;99.90;;;;;;5087822;28;20184;-79
2020/12/06 01:55:30;;;;;;;5.30;3.73;;;2.30;99.90;;;;;;5084427;28;20254;-78
2020/12/06 01:58:05;;;;;;;5.53;4.33;;;2.30;99.90;;;;;;5084914;28;20209;-79
2020/12/06 02:00:31;;;;;;;4.57;3.33;;;2.20;99.90;;;;;;5085273;28;20192;-79
2020/12/06 02:03:02;;;;;;;4.87;3.63;;;2.30;99.90;;;;;;5086410;28;20188;-78
2020/12/06 02:05:28;;;;;;;4.30;3.73;;;2.30;99.90;;;;;;5085991;28;20622;-79
2020/12/06 02:07:57;;;;;;;4.20;3.53;;;2.30;99.90;;;;;;5085371;28;20610;-79
2020/12/06 02:10:24;;;;;;;5.17;3.87;;;2.30;99.90;;;;;;5086370;28;20204;-79
2020/12/06 02:12:52;;;;;;;5.93;4.80;;;2.30;99.90;;;;;;5086064;28;20245;-79
2020/12/06 02:15:18;;;;;;;6.73;4.43;;;2.30;99.90;;;;;;5086506;28;20224;-78
2020/12/06 02:17:43;;;;;;;4.47;3.17;;;2.40;99.90;;;;;;5084615;28;20226;-79
2020/12/06 02:20:09;;;;;;;4.90;4.13;;;2.40;99.90;;;;;;5084760;28;20254;-77
2020/12/06 02:22:34;;;;;;;6.13;4.53;;;2.30;99.90;;;;;;5085480;28;20185;-79
2020/12/06 02:25:00;;;;;;;5.77;4.37;;;2.20;99.90;;;;;;5084761;28;20219;-78
2020/12/06 02:27:25;;;;;;;5.93;4.43;;;2.20;99.90;;;;;;5085637;28;20197;-78
2020/12/06 02:29:51;;;;;;;5.53;3.30;;;2.30;99.90;;;;;;5087855;28;20242;-77
2020/12/06 02:32:17;;;;;;;5.70;4.77;;;2.20;99.90;;;;;;5091553;28;20207;-78
2020/12/06 02:34:42;;;;;;;4.97;4.13;;;2.30;99.90;;;;;;5093483;28;20197;-79
2020/12/06 02:37:08;;;;;;;6.23;3.43;;;2.30;99.90;;;;;;5090325;28;20205;-78
2020/12/06 02:39:33;;;;;;;5.77;4.03;;;2.40;99.90;;;;;;5089569;28;20224;-79
2020/12/06 02:41:59;;;;;;;5.73;3.63;;;2.40;99.90;;;;;;5091335;28;20295;-80
2020/12/06 02:44:24;;;;;;;7.57;4.20;;;2.40;99.90;;;;;;5089706;28;20678;-80
2020/12/06 02:46:50;;;;;;;4.50;3.10;;;2.40;99.90;;;;;;5091418;28;20196;-77
2020/12/06 02:49:16;;;;;;;4.13;3.47;;;2.40;99.90;;;;;;5090781;28;20213;-79
2020/12/06 02:51:41;;;;;;;4.93;3.47;;;2.40;99.90;;;;;;5090022;28;20188;-79
2020/12/06 02:54:07;;;;;;;4.40;4.00;;;2.40;99.90;;;;;;5091724;28;20267;-78
2020/12/06 02:56:32;;;;;;;4.07;3.30;;;2.40;99.90;;;;;;5090398;28;20209;-79
2020/12/06 02:58:58;;;;;;;4.83;3.57;;;2.40;99.90;;;;;;5091591;28;20699;-79
2020/12/06 03:01:34;;;;;;;5.17;3.80;;;2.40;99.90;;;;;;5088418;28;20184;-78
2020/12/06 03:04:00;;;;;;;7.33;3.37;;;2.40;99.90;;;;;;5090045;28;20180;-79
2020/12/06 03:06:26;;;;;;;5.57;3.50;;;2.50;99.90;;;;;;5091371;28;20210;-80
2020/12/06 03:08:51;;;;;;;4.23;3.63;;;2.50;99.90;;;;;;5089539;28;20315;-77
2020/12/06 03:11:17;;;;;;;4.80;3.77;;;2.40;99.90;;;;;;5090558;28;20307;-78
2020/12/06 03:13:43;;;;;;;3.57;3.03;;;2.40;99.90;;;;;;5088131;28;20192;-79
2020/12/06 03:16:08;;;;;;;7.80;4.53;;;2.50;99.90;;;;;;5088823;28;20184;-79
2020/12/06 03:18:34;;;;;;;4.93;3.67;;;2.50;99.90;;;;;;5087947;28;20236;-78
2020/12/06 03:21:00;;;;;;;6.37;4.10;;;2.50;99.90;;;;;;5089549;28;20188;-79
2020/12/06 03:23:25;;;;;;;5.20;3.40;;;2.60;99.90;;;;;;5089278;28;20220;-79
2020/12/06 03:25:51;;;;;;;6.43;4.87;;;2.60;99.90;;;;;;5089101;28;20219;-80
2020/12/06 03:28:17;;;;;;;5.87;3.80;;;2.70;99.90;;;;;;5087816;28;20629;-80
2020/12/06 03:30:43;;;;;;;5.37;3.23;;;2.60;99.90;;;;;;5088707;28;21092;-78
2020/12/06 03:33:09;;;;;;;5.37;4.47;;;2.60;99.90;;;;;;5089221;28;20189;-79
2020/12/06 03:35:34;;;;;;;7.63;5.03;;;2.60;99.90;;;;;;5089544;28;20230;-79
2020/12/06 03:38:00;;;;;;;8.50;5.60;;;2.60;99.90;;;;;;5089374;28;20685;-78
2020/12/06 03:40:26;;;;;;;7.37;5.30;;;2.60;99.90;;;;;;5086265;28;20219;-78
2020/12/06 03:42:52;;;;;;;5.87;4.50;;;2.50;99.90;;;;;;5086845;28;20185;-80
2020/12/06 03:45:19;;;;;;;6.00;4.70;;;2.50;99.90;;;;;;5103713;28;20208;-78
2020/12/06 03:47:47;;;;;;;5.20;4.23;;;2.50;99.90;;;;;;5087061;28;20203;-80
2020/12/06 03:50:13;;;;;;;6.77;4.60;;;2.60;99.90;;;;;;5088720;28;20209;-79
2020/12/06 03:52:38;;;;;;;6.83;4.40;;;2.60;99.90;;;;;;5087977;28;20261;-79
2020/12/06 03:55:05;;;;;;;6.83;4.90;;;2.60;99.90;;;;;;5086541;28;20195;-78
2020/12/06 03:57:30;;;;;;;5.30;3.97;;;2.70;99.90;;;;;;5086893;28;20291;-80
2020/12/06 03:59:56;;;;;;;7.70;5.20;;;2.70;99.90;;;;;;5088524;28;20265;-79
2020/12/06 04:02:21;;;;;;;5.83;3.90;;;2.60;99.90;;;;;;5088316;28;20285;-80
2020/12/06 04:04:47;;;;;;;5.63;3.83;;;2.60;99.90;;;;;;5088871;28;20184;-78
2020/12/06 04:07:13;;;;;;;6.93;4.87;;;2.60;99.90;;;;;;5087760;28;20627;-78
2020/12/06 04:09:38;;;;;;;5.93;3.87;;;2.60;99.90;;;;;;5088615;28;20228;-78
2020/12/06 04:12:04;;;;;;;7.73;5.20;;;2.50;99.90;;;;;;5086894;28;20658;-80
2020/12/06 04:14:29;;;;;;;5.83;3.93;;;2.50;99.90;;;;;;5086747;28;20189;-79
2020/12/06 04:16:55;;;;;;;4.73;3.80;;;2.50;99.90;;;;;;5088002;28;20282;-79
2020/12/06 04:19:20;;;;;;;6.57;4.37;;;2.50;99.90;;;;;;5088148;28;20776;-78
2020/12/06 04:21:46;;;;;;;6.47;4.63;;;2.50;99.90;;;;;;5086625;28;20238;-77
2020/12/06 04:24:12;;;;;;;7.27;4.27;;;2.60;99.90;;;;;;5087135;28;20188;-78
2020/12/06 04:26:41;;;;;;;7.43;4.23;;;2.60;99.90;;;;;;5087362;28;20189;-79
2020/12/06 04:29:06;;;;;;;4.93;4.20;;;2.60;99.90;;;;;;5087048;28;20209;-79
2020/12/06 04:31:32;;;;;;;5.80;4.27;;;2.80;99.90;;;;;;5087902;28;20197;-79
2020/12/06 04:33:58;;;;;;;5.73;4.60;;;2.90;99.90;;;;;;5086718;28;20562;-79
2020/12/06 04:36:23;;;;;;;5.30;3.90;;;2.80;99.90;;;;;;5087195;28;20185;-79
2020/12/06 04:38:49;;;;;;;6.93;4.67;;;2.70;99.90;;;;;;5087992;28;20569;-78
2020/12/06 04:41:14;;;;;;;7.00;5.10;;;2.70;99.90;;;;;;5085916;28;20238;-79
2020/12/06 04:43:43;;;;;;;3.93;3.37;;;2.70;99.90;;;;;;5086300;28;20246;-79
2020/12/06 04:46:08;;;;;;;4.90;4.37;;;2.70;99.90;;;;;;5087537;28;20214;-79
2020/12/06 04:48:58;;;;;;;12.47;5.57;;;2.70;99.90;;;;;;5086436;28;20251;-77
2020/12/06 04:51:28;;;;;;;6.87;5.37;;;2.60;99.90;;;;;;5085807;28;20868;-77
2020/12/06 04:54:01;;;;;;;6.60;5.13;;;2.60;99.90;;;;;;5087271;28;20283;-79
2020/12/06 04:56:29;;;;;;;6.30;3.77;;;2.50;99.90;;;;;;5085571;28;20205;-78
2020/12/06 04:58:58;;;;;;;5.93;5.27;;;2.60;99.90;;;;;;5086600;28;20224;-79
2020/12/06 05:01:29;;;;;;;6.70;4.27;;;2.50;99.90;;;;;;5087488;28;20184;-78
2020/12/06 05:03:58;;;;;;;5.60;4.47;;;2.60;99.90;;;;;;5087511;28;20191;-78
2020/12/06 05:06:26;;;;;;;6.90;4.83;;;2.70;99.90;;;;;;5086942;28;20267;-77
2020/12/06 05:08:52;;;;;;;5.60;4.43;;;2.60;99.90;;;;;;5087580;28;20211;-78
2020/12/06 05:11:18;;;;;;;5.83;4.90;;;2.60;99.90;;;;;;5087251;28;20188;-78
2020/12/06 05:13:45;;;;;;;6.47;4.53;;;2.60;99.90;;;;;;5086793;28;20177;-78
2020/12/06 05:16:11;;;;;;;6.70;5.23;;;2.50;99.90;;;;;;5085486;28;20196;-78
2020/12/06 05:18:37;;;;;;;6.37;4.27;;;2.50;99.90;;;;;;5086992;28;20990;-78
2020/12/06 05:21:03;;;;;;;6.30;4.10;;;2.50;99.90;;;;;;5087167;28;20216;-79
2020/12/06 05:23:29;;;;;;;4.70;3.90;;;2.60;99.90;;;;;;5086091;28;20188;-78
2020/12/06 05:25:54;;;;;;;8.07;4.57;;;2.50;99.90;;;;;;5086343;28;20184;-78
2020/12/06 05:28:21;;;;;;;8.27;5.07;;;2.50;99.90;;;;;;5087497;28;20667;-78
2020/12/06 05:30:48;;;;;;;5.53;4.10;;;2.50;99.90;;;;;;5084557;28;20732;-79
2020/12/06 05:33:16;;;;;;;5.70;4.10;;;2.40;99.90;;;;;;5085143;28;20565;-79
2020/12/06 05:35:42;;;;;;;5.80;4.80;;;2.40;99.90;;;;;;5086439;28;20226;-79
2020/12/06 05:38:08;;;;;;;7.60;3.80;;;2.40;99.90;;;;;;5084453;28;20673;-78
2020/12/06 05:40:43;;;;;;;6.63;4.43;;;2.40;99.90;;;;;;5085022;28;20196;-79
2020/12/06 05:43:09;;;;;;;5.93;4.87;;;2.40;99.90;;;;;;5086050;28;20203;-80
2020/12/06 05:45:35;;;;;;;7.57;4.83;;;2.50;99.90;;;;;;5084505;28;20647;-79
2020/12/06 05:48:00;;;;;;;4.80;4.30;;;2.40;99.90;;;;;;5085200;28;20201;-79
2020/12/06 05:50:26;;;;;;;8.53;5.30;;;2.40;99.90;;;;;;5084415;28;21120;-80
2020/12/06 05:52:56;;;;;;;7.43;4.63;;;2.60;99.90;;;;;;5087375;28;20242;-77
2020/12/06 05:55:22;;;;;;;7.90;5.33;;;2.50;99.90;;;;;;5085120;28;20288;-79
2020/12/06 05:57:47;;;;;;;5.67;4.27;;;2.50;99.90;;;;;;5086708;28;20300;-78
2020/12/06 06:00:14;;;;;;;5.53;4.67;;;2.50;99.90;;;;;;5087063;28;20266;-79
2020/12/06 06:02:44;;;;;;;5.30;4.70;;;2.50;99.90;;;;;;5087182;28;20189;-78
2020/12/06 06:05:20;;;;;;;6.70;4.50;;;2.50;99.90;;;;;;5090813;28;20180;-80
2020/12/06 06:07:48;;;;;;;6.43;5.07;;;2.40;99.90;;;;;;5089731;28;20242;-80
2020/12/06 06:10:18;;;;;;;5.50;4.07;;;2.50;99.90;;;;;;5090720;28;20295;-79
2020/12/06 06:12:47;;;;;;;6.67;5.00;;;2.50;99.90;;;;;;5090721;28;20295;-80
2020/12/06 06:15:13;;;;;;;6.83;5.00;;;2.50;99.90;;;;;;5088673;28;20215;-79
2020/12/06 06:17:40;;;;;;;6.83;4.73;;;2.50;99.90;;;;;;5089354;28;20686;-77
2020/12/06 06:20:06;;;;;;;4.47;4.03;;;2.50;99.90;;;;;;5089161;28;20213;-77
2020/12/06 06:22:33;;;;;;;6.20;4.93;;;2.50;99.90;;;;;;5089285;28;20864;-79
2020/12/06 06:25:00;;;;;;;5.23;4.73;;;2.40;99.90;;;;;;5090212;28;20591;-78
2020/12/06 06:27:39;;;;;;;4.50;4.07;;;2.40;99.90;;;;;;5089172;28;20206;-79
2020/12/06 06:30:06;;;;;;;6.97;4.67;;;2.40;99.90;;;;;;5088676;28;20216;-79
2020/12/06 06:32:32;;;;;;;7.00;4.77;;;2.40;99.90;;;;;;5088793;28;20654;-80
2020/12/06 06:35:00;;;;;;;6.43;5.10;;;2.40;99.90;;;;;;5088824;28;20184;-79
2020/12/06 06:37:30;;;;;;;6.83;4.30;;;2.30;99.90;;;;;;5089767;28;20210;-79
2020/12/06 06:40:02;;;;;;;6.27;4.63;;;2.30;99.90;;;;;;5090032;28;20769;-79
2020/12/06 06:42:28;;;;;;;5.53;4.33;;;2.30;99.90;;;;;;5088331;28;20215;-78
2020/12/06 06:45:07;;;;;;;5.57;3.90;;;2.30;99.90;;;;;;5088444;28;20201;-79
2020/12/06 06:47:36;;;;;;;8.43;4.80;;;2.30;99.90;;;;;;5090076;28;20200;-79
2020/12/06 06:50:02;;;;;;;6.83;5.40;;;2.30;99.90;;;;;;5087400;28;20261;-78
2020/12/06 06:52:29;;;;;;;7.30;4.77;;;2.30;99.90;;;;;;5089634;28;20570;-80
2020/12/06 06:54:56;;;;;;;5.10;4.47;;;2.30;99.90;;;;;;5089367;28;20679;-79
2020/12/06 06:57:23;;;;;;;5.00;3.97;;;2.30;99.90;;;;;;5087468;28;20715;-79
2020/12/06 07:00:00;;;;;;;5.90;4.60;;;2.30;99.90;;;;;;5089140;28;20201;-78
2020/12/06 07:02:35;;;;;;;5.03;4.03;;;2.40;99.90;;;;;;5089099;28;20208;-79
2020/12/06 07:05:06;;;;;;;7.43;4.60;;;2.40;99.90;;;;;;5086380;28;20184;-79
2020/12/06 07:07:51;;;;;;;5.87;4.73;;;2.50;99.90;;;;;;5088938;28;20181;-78
2020/12/06 07:10:22;;;;;;;5.50;3.83;;;2.50;99.90;;;;;;5088810;28;21104;-79
2020/12/06 07:12:53;;;;;;;7.57;4.53;;;2.40;99.90;;;;;;5089123;28;20196;-78
2020/12/06 07:15:22;;;;;;;11.73;5.00;;;2.40;99.90;;;;;;5087904;28;20650;-79
2020/12/06 07:17:50;;;;;;;6.10;3.60;;;2.40;99.90;;;;;;5087786;28;20299;-79
2020/12/06 07:20:17;;;;;;;4.70;3.60;;;2.40;99.90;;;;;;5087444;28;20216;-79
2020/12/06 07:22:44;;;;;;;5.43;3.83;;;2.40;99.90;;;;;;5103964;28;20885;-79
2020/12/06 07:25:10;;;;;;;7.57;4.90;;;2.40;99.90;;;;;;5087867;28;20234;-79
2020/12/06 07:27:36;;;;;;;5.93;4.00;;;2.40;99.90;;;;;;5087254;28;20188;-79
2020/12/06 07:30:07;;;;;;;20.23;5.03;;;2.40;99.90;;;;;;5087285;28;20291;-80
2020/12/06 07:32:34;;;;;;;4.83;4.10;;;2.30;99.90;;;;;;5088534;28;20184;-80
2020/12/06 07:35:00;;;;;;;7.47;3.60;;;2.30;99.90;;;;;;5086524;28;20280;-79
2020/12/06 07:37:26;;;;;;;4.13;3.73;;;2.30;99.90;;;;;;5085906;28;20299;-79
2020/12/06 07:39:51;;;;;;;5.07;3.67;;;2.30;99.90;;;;;;5086655;28;20224;-77
2020/12/06 07:42:21;;;;;;;6.47;4.63;;;2.40;99.90;;;;;;5088436;28;20272;-79
2020/12/06 07:44:52;;;;;;;4.83;3.73;;;2.40;99.90;;;;;;5086686;28;20188;-77
2020/12/06 07:47:18;;;;;;;5.40;4.33;;;2.40;99.90;;;;;;5088077;28;20189;-79
2020/12/06 07:49:55;;;;;;;6.63;4.47;;;2.40;99.90;;;;;;5087490;28;20201;-79
2020/12/06 07:52:24;;;;;;;5.50;4.20;;;2.40;99.90;;;;;;5086845;28;20184;-79
2020/12/06 07:55:08;;;;;;;7.57;4.80;;;2.40;99.90;;;;;;5086678;28;20181;-79
2020/12/06 07:57:40;;;;;;;6.33;3.83;;;2.50;99.90;;;;;;5087798;28;20205;-79
2020/12/06 08:00:11;;;;;;;6.87;4.90;;;2.50;99.90;;;;;;5088147;28;20208;-79
2020/12/06 08:02:41;;;;;;;5.83;4.83;;;2.50;99.90;;;;;;5086054;28;20209;-79
2020/12/06 08:05:09;;;;;;;10.50;5.83;;;2.60;99.90;;;;;;5087053;28;20226;-79
2020/12/06 08:07:38;;;;;;;7.80;5.23;;;2.60;99.90;;;;;;5086438;28;20689;-78
2020/12/06 08:10:05;;;;;;;7.23;5.30;;;2.60;99.90;;;;;;5104074;28;20216;-79
2020/12/06 08:12:35;;;;;;;6.33;4.57;;;2.60;99.90;;;;;;5087703;28;20265;-78
2020/12/06 08:15:04;;;;;;;6.57;4.60;;;2.70;99.90;;;;;;5085731;28;20181;-77
2020/12/06 08:17:48;;;;;;;7.43;5.27;;;2.70;99.90;;;;;;5088133;28;20212;-80
2020/12/06 08:20:16;;;;;;;9.33;5.63;;;2.70;99.90;;;;;;5087825;28;20200;-80
2020/12/06 08:22:53;;;;;;;6.77;4.70;;;2.70;99.90;;;;;;5087658;28;20187;-80
2020/12/06 08:25:21;;;;;;;7.27;4.83;;;2.70;99.90;;;;;;5086121;28;20184;-79
2020/12/06 08:27:48;;;;;;;7.07;6.37;;;2.70;99.90;;;;;;5084987;28;21133;-79
2020/12/06 08:30:19;;;;;;;7.80;5.17;;;2.70;99.90;;;;;;5086566;28;20538;-80
2020/12/06 08:33:05;;;;;;;9.53;5.80;;;2.80;99.90;;;;;;5087732;28;20185;-79
2020/12/06 08:35:44;;;;;;;9.53;5.77;;;2.80;99.90;;;;;;5086915;28;20644;-80
2020/12/06 08:38:16;;;;;;;8.90;4.73;;;2.90;99.90;;;;;;5085486;28;20242;-79
2020/12/06 08:41:02;;;;;;;8.83;4.80;;;2.90;99.90;;;;;;5086556;28;20280;-80
2020/12/06 08:43:44;;;;;;;7.90;5.47;;;3.00;99.90;;;;;;5086695;28;20254;-78
2020/12/06 08:46:10;;;;;;;6.33;4.87;;;3.00;99.90;;;;;;5086837;28;20195;-79
2020/12/06 08:48:36;;;;;;;9.93;6.63;;;3.00;99.90;;;;;;5085421;28;20204;-79
2020/12/06 08:51:02;;;;;;;6.20;4.80;;;3.00;99.90;;;;;;5085198;28;20676;-80
2020/12/06 08:53:42;;;;;;;7.97;5.77;;;3.10;99.90;;;;;;5086104;28;20734;-79
2020/12/06 08:56:36;;;;;;;7.73;4.97;;;3.00;99.90;;;;;;5084972;28;20277;-78
2020/12/06 08:59:12;;;;;;;6.47;4.93;;;3.00;99.90;;;;;;5084924;28;20213;-78
2020/12/06 09:01:56;;;;;;;5.80;4.30;;;3.00;99.90;;;;;;5085735;28;20803;-80
2020/12/06 09:04:22;;;;;;;6.97;4.57;;;3.10;99.90;;;;;;5087269;28;20181;-78
2020/12/06 09:06:50;;;;;;;7.33;5.23;;;3.10;99.90;;;;;;5084526;28;20732;-78
2020/12/06 09:09:16;;;;;;;5.47;4.10;;;3.10;99.90;;;;;;5086788;28;20204;-83
2020/12/06 09:11:41;;;;;;;6.33;4.70;;;3.10;99.90;;;;;;5083906;28;20191;-79
2020/12/06 09:14:07;;;;;;;6.77;5.30;;;3.10;99.90;;;;;;5085499;28;20724;-78
2020/12/06 09:16:32;;;;;;;6.30;4.70;;;3.20;99.90;;;;;;5085115;28;20192;-78
2020/12/06 09:18:58;;;;;;;8.70;5.70;;;3.20;99.90;;;;;;5084165;28;20286;-79
2020/12/06 09:21:24;;;;;;;7.97;5.83;;;3.20;99.90;;;;;;5099760;28;20917;-78
2020/12/06 09:23:49;;;;;;;7.47;4.67;;;3.20;99.90;;;;;;5100166;28;20177;-78
2020/12/06 09:26:15;;;;;;;8.53;6.37;;;3.30;99.90;;;;;;5082813;28;20180;-78
2020/12/06 09:28:41;;;;;;;6.40;4.50;;;3.30;99.90;;;;;;5083900;28;20211;-80
2020/12/06 09:31:07;;;;;;;7.80;4.67;;;3.30;99.90;;;;;;5085552;28;20192;-80
2020/12/06 09:33:32;;;;;;;7.77;5.43;;;3.30;99.90;;;;;;5085319;28;20189;-79
2020/12/06 09:35:58;;;;;;;7.97;5.63;;;3.30;99.90;;;;;;5085545;28;20196;-79
2020/12/06 09:38:24;;;;;;;7.23;5.23;;;3.30;99.90;;;;;;5083220;28;20208;-79
2020/12/06 09:40:50;;;;;;;7.33;5.07;;;3.40;99.90;;;;;;5085465;28;20200;-79
2020/12/06 09:43:16;;;;;;;8.23;5.13;;;3.40;99.90;;;;;;5085257;28;20189;-80
2020/12/06 09:45:42;;;;;;;6.07;4.67;;;3.40;99.90;;;;;;5085351;28;20264;-78
2020/12/06 09:48:08;;;;;;;7.53;4.73;;;3.40;99.90;;;;;;5084597;28;20545;-78
2020/12/06 09:50:34;;;;;;;8.07;5.40;;;3.50;99.90;;;;;;5084946;28;20234;-78
2020/12/06 09:53:00;;;;;;;8.70;6.60;;;3.50;99.90;;;;;;5085844;28;20188;-80
2020/12/06 09:55:25;;;;;;;7.53;4.97;;;3.50;99.90;;;;;;5085444;28;20736;-80
2020/12/06 09:57:51;;;;;;;7.50;5.13;;;3.50;99.90;;;;;;5085576;28;20613;-81
2020/12/06 10:00:17;;;;;;;7.80;4.90;;;3.50;99.90;;;;;;5086288;28;20211;-80
2020/12/06 10:02:43;;;;;;;7.37;4.70;;;3.50;99.90;;;;;;5084975;28;20658;-78
2020/12/06 10:05:09;;;;;;;9.97;5.33;;;3.50;99.90;;;;;;5083359;28;20740;-80
2020/12/06 10:07:35;;;;;;;6.53;4.57;;;3.50;99.90;;;;;;5100843;28;20237;-80
2020/12/06 10:10:00;;;;;;;5.97;5.03;;;3.50;99.90;;;;;;5084131;28;20208;-80
2020/12/06 10:12:26;;;;;;;5.70;3.87;;;3.50;99.90;;;;;;5085899;28;20280;-80
2020/12/06 10:14:51;;;;;;;6.37;4.63;;;3.50;99.90;;;;;;5085060;28;20219;-80
2020/12/06 10:17:17;;;;;;;6.13;4.30;;;3.50;99.90;;;;;;5084298;28;20694;-80
2020/12/06 10:19:43;;;;;;;9.93;6.07;;;3.50;99.90;;;;;;5084997;28;20688;-79
2020/12/06 10:22:08;;;;;;;5.37;4.17;;;3.50;99.90;;;;;;5085925;28;20189;-81
2020/12/06 10:24:34;;;;;;;8.17;5.47;;;3.50;99.90;;;;;;5084758;28;20208;-80
2020/12/06 10:26:59;;;;;;;8.03;5.47;;;3.50;99.90;;;;;;5084751;28;20187;-80
2020/12/06 10:29:25;;;;;;;9.67;6.53;;;3.50;99.90;;;;;;5086184;28;20675;-80
2020/12/06 10:31:53;;;;;;;9.73;4.93;;;3.60;99.90;;;;;;5083926;28;20188;-80
2020/12/06 10:34:20;;;;;;;6.80;5.10;;;3.60;99.90;;;;;;5086113;28;20325;-79
2020/12/06 10:36:56;;;;;;;8.47;5.57;;;3.60;99.90;;;;;;5082560;28;20211;-80
2020/12/06 10:39:24;;;;;;;8.23;5.43;;;3.60;99.90;;;;;;5085361;28;20251;-80
2020/12/06 10:41:54;;;;;;;9.23;6.20;;;3.70;99.90;;;;;;5083719;28;20601;-81
2020/12/06 10:44:21;;;;;;;7.10;4.90;;;3.70;99.90;;;;;;5083814;28;20181;-81
2020/12/06 10:46:47;;;;;;;7.00;5.47;;;3.70;99.90;;;;;;5084013;28;20192;-80
2020/12/06 10:49:14;;;;;;;8.30;4.60;;;3.80;99.90;;;;;;5083861;28;20212;-80
2020/12/06 10:51:41;;;;;;;9.17;6.60;;;3.70;99.90;;;;;;5087208;28;20242;-80
2020/12/06 10:54:07;;;;;;;8.03;5.53;;;3.70;99.90;;;;;;5087867;28;20189;-81
2020/12/06 10:56:32;;;;;;;10.90;7.03;;;3.70;99.90;;;;;;5088795;28;20222;-79
2020/12/06 10:58:58;;;;;;;8.30;5.40;;;3.80;99.90;;;;;;5087878;28;20197;-78
2020/12/06 11:01:29;;;;;;;10.23;5.87;;;3.80;99.90;;;;;;5086634;28;20666;-80
2020/12/06 11:03:54;;;;;;;7.87;6.27;;;3.80;99.90;;;;;;5088350;28;20651;-80
2020/12/06 11:06:21;;;;;;;7.57;5.43;;;3.70;99.90;;;;;;5086709;28;20185;-78
2020/12/06 11:08:47;;;;;;;8.13;5.07;;;3.70;99.90;;;;;;5086463;28;20228;-78
2020/12/06 11:11:17;;;;;;;7.00;5.33;;;3.70;99.90;;;;;;5086508;28;21102;-78
2020/12/06 11:13:43;;;;;;;7.77;5.77;;;3.70;99.90;;;;;;5086207;28;20188;-78
2020/12/06 11:16:09;;;;;;;7.30;6.00;;;3.70;99.90;;;;;;5087981;28;20181;-79
2020/12/06 11:18:35;;;;;;;7.87;6.97;;;3.70;99.90;;;;;;5087692;28;21172;-79
2020/12/06 11:21:02;;;;;;;10.50;7.50;;;3.70;99.90;;;;;;5087896;28;20185;-79
2020/12/06 11:23:27;;;;;;;5.67;4.97;;;3.80;99.90;;;;;;5097000;28;20177;-80
2020/12/06 11:25:53;;;;;;;6.83;5.27;;;3.80;99.90;;;;;;5094610;28;20184;-79
2020/12/06 11:28:20;;;;;;;8.03;5.43;;;3.80;99.90;;;;;;5089341;28;20192;-79
2020/12/06 11:30:45;;;;;;;9.63;6.27;;;3.80;99.90;;;;;;5089550;28;20254;-78
2020/12/06 11:33:11;;;;;;;10.57;4.93;;;3.70;99.90;;;;;;5088974;28;20189;-78
2020/12/06 11:35:37;;;;;;;8.43;6.03;;;3.80;99.90;;;;;;5088966;28;20181;-80
2020/12/06 11:38:03;;;;;;;9.73;5.87;;;3.80;99.90;;;;;;5088765;28;20281;-78
2020/12/06 11:40:29;;;;;;;9.17;6.03;;;3.80;99.90;;;;;;5089289;28;20216;-79
2020/12/06 11:42:55;;;;;;;8.80;6.63;;;3.80;99.90;;;;;;5089876;28;20189;-80
2020/12/06 11:45:21;;;;;;;6.83;5.10;;;3.90;99.90;;;;;;5088781;28;20189;-78
2020/12/06 11:47:46;;;;;;;7.93;6.07;;;3.90;99.90;;;;;;5088339;28;20195;-79
2020/12/06 11:50:12;;;;;;;7.90;5.40;;;3.90;99.90;;;;;;5088180;28;20208;-79
2020/12/06 11:52:38;;;;;;;7.37;5.63;;;4.00;99.90;;;;;;5088224;28;20196;-80
2020/12/06 11:55:03;;;;;;;7.93;5.90;;;4.10;99.90;;;;;;5089811;28;20188;-80
2020/12/06 11:57:29;;;;;;;9.27;6.70;;;4.10;99.90;;;;;;5104902;28;20253;-80
2020/12/06 11:59:54;;;;;;;7.40;5.60;;;4.10;99.90;;;;;;5096376;22;20318;-70
2020/12/06 12:02:20;;;;;;;6.50;5.23;;;4.10;99.90;;;;;;5088882;28;20184;-70
2020/12/06 12:04:46;;;;;;;9.77;5.40;;;4.20;99.90;;;;;;5102382;28;20215;-70
2020/12/06 12:07:11;;;;;;;8.07;5.53;;;4.20;99.90;;;;;;5094776;28;20730;-70
2020/12/06 12:09:37;;;;;;;11.33;5.90;;;4.20;99.90;;;;;;5098739;28;20254;-70
2020/12/06 12:12:03;;;;;;;11.27;7.00;;;4.20;99.90;;;;;;5099627;28;20196;-69
2020/12/06 12:14:28;;;;;;;8.50;6.23;;;4.20;99.90;;;;;;5097645;28;20204;-71
2020/12/06 12:16:54;;;;;;;9.33;6.43;;;4.20;99.90;;;;;;5096354;28;20213;-72
2020/12/06 12:19:20;;;;;;;7.67;5.53;;;4.20;99.90;;;;;;5099379;28;20195;-70
2020/12/06 12:21:46;;;;;;;9.00;6.20;;;4.10;99.90;;;;;;5097195;28;20184;-71
2020/12/06 12:24:12;;;;;;;6.83;5.03;;;4.10;99.90;;;;;;5094329;28;20257;-70
2020/12/06 12:26:37;;;;;;;9.43;6.13;;;4.00;99.90;;;;;;5092442;28;20180;-69
2020/12/06 12:29:03;;;;;;;8.97;5.97;;;4.00;99.90;;;;;;5100445;28;20185;-70
2020/12/06 12:31:31;;;;;;;10.20;6.77;;;4.00;99.90;;;;;;5097173;28;20191;-71
2020/12/06 12:33:57;;;;;;;9.80;6.30;;;4.00;99.90;;;;;;5095683;28;20582;-70
2020/12/06 12:36:23;;;;;;;8.20;6.20;;;3.90;99.90;;;;;;5097401;28;20220;-71
2020/12/06 12:38:49;;;;;;;7.60;5.17;;;4.00;99.90;;;;;;5093869;28;20227;-69
2020/12/06 12:41:15;;;;;;;9.43;6.07;;;3.90;99.90;;;;;;5099050;28;20219;-69
2020/12/06 12:43:40;;;;;;;9.70;6.30;;;3.90;99.90;;;;;;5096433;28;20747;-70
2020/12/06 12:46:06;;;;;;;10.30;7.27;;;3.90;99.90;;;;;;5094570;28;20188;-70
2020/12/06 12:48:31;;;;;;;9.90;7.17;;;3.90;99.90;;;;;;5096234;28;20192;-70
2020/12/06 12:50:58;;;;;;;8.70;5.27;;;3.90;99.90;;;;;;5100591;28;20193;-70
2020/12/06 12:53:23;;;;;;;11.30;6.70;;;3.90;99.90;;;;;;5095846;28;20229;-71
2020/12/06 12:55:49;;;;;;;8.03;5.93;;;3.90;99.90;;;;;;5096314;28;20227;-70
2020/12/06 12:58:15;;;;;;;9.33;5.80;;;3.90;99.90;;;;;;5097465;28;20303;-70